Terminal Aerodrome Forecast
Issued by NWS Lake Charles, LA

Home | Current Version | Previous Version | Text Only | Print | Product List | Glossary On
Versions: 1 2 3 4 5 6 7 8 9 10 11 12 13 14 15 16 17 18 19 20 21 22 23 24 25 26 27 28 29
358
FTUS44 KLCH 271346 AAB
TAFAEX
TAF AMD
KAEX 271346Z 2714/2812 VRB04KT P6SM SCT010 BKN070
      TEMPO 2714/2715 5SM BR BKN010
     FM271500 23008KT P6SM VCTS SCT035CB
     FM280200 VRB05KT P6SM BKN250=

USA.gov is the U.S. government's official web portal to all federal, state and local government web resources and services.